sensor_id;sensor_type;location;lat;lon;timestamp;pressure;altitude;pressure_sealevel;temperature;humidity
18509;BME280;9383;50.928;12.116;2023-03-14T00:02:14;96702.56;;;9.75;100.00
18509;BME280;9383;50.928;12.116;2023-03-14T00:04:40;96700.75;;;9.75;100.00
18509;BME280;9383;50.928;12.116;2023-03-14T00:07:07;96700.75;;;9.75;100.00
18509;BME280;9383;50.928;12.116;2023-03-14T00:09:34;96692.94;;;9.74;100.00
18509;BME280;9383;50.928;12.116;2023-03-14T00:12:02;96691.44;;;9.69;100.00
18509;BME280;9383;50.928;12.116;2023-03-14T00:14:30;96675.56;;;9.69;100.00
18509;BME280;9383;50.928;12.116;2023-03-14T00:16:57;96676.53;;;9.68;100.00
18509;BME280;9383;50.928;12.116;2023-03-14T00:19:24;96684.69;;;9.65;100.00
18509;BME280;9383;50.928;12.116;2023-03-14T00:21:50;96689.97;;;9.65;100.00
18509;BME280;9383;50.928;12.116;2023-03-14T00:24:17;96684.69;;;9.65;100.00
18509;BME280;9383;50.928;12.116;2023-03-14T00:26:44;96691.97;;;9.62;100.00
18509;BME280;9383;50.928;12.116;2023-03-14T00:29:10;96697.16;;;9.63;100.00
18509;BME280;9383;50.928;12.116;2023-03-14T00:31:36;96700.75;;;9.62;100.00
18509;BME280;9383;50.928;12.116;2023-03-14T00:34:05;96699.69;;;9.65;100.00
18509;BME280;9383;50.928;12.116;2023-03-14T00:36:32;96696.09;;;9.66;100.00
18509;BME280;9383;50.928;12.116;2023-03-14T00:38:58;96682.69;;;9.69;100.00
18509;BME280;9383;50.928;12.116;2023-03-14T00:41:25;96677.25;;;9.70;100.00
18509;BME280;9383;50.928;12.116;2023-03-14T00:43:52;96677.91;;;9.74;100.00
18509;BME280;9383;50.928;12.116;2023-03-14T00:46:19;96684.06;;;9.75;100.00
18509;BME280;9383;50.928;12.116;2023-03-14T00:48:46;96682.16;;;9.77;100.00
18509;BME280;9383;50.928;12.116;2023-03-14T00:51:12;96687.22;;;9.80;100.00
18509;BME280;9383;50.928;12.116;2023-03-14T00:53:42;96692.41;;;9.81;100.00
18509;BME280;9383;50.928;12.116;2023-03-14T00:56:11;96711.78;;;9.82;100.00
18509;BME280;9383;50.928;12.116;2023-03-14T00:58:38;96731.16;;;9.82;100.00
18509;BME280;9383;50.928;12.116;2023-03-14T01:01:14;96723.88;;;9.86;100.00
18509;BME280;9383;50.928;12.116;2023-03-14T01:03:40;96738.78;;;9.87;100.00
18509;BME280;9383;50.928;12.116;2023-03-14T01:06:09;96737.72;;;9.90;100.00
18509;BME280;9383;50.928;12.116;2023-03-14T01:08:35;96730.41;;;9.93;100.00
18509;BME280;9383;50.928;12.116;2023-03-14T01:11:07;96737.41;;;9.94;100.00
18509;BME280;9383;50.928;12.116;2023-03-14T01:13:35;96741.00;;;9.93;100.00
18509;BME280;9383;50.928;12.116;2023-03-14T01:16:05;96738.25;;;9.95;100.00
18509;BME280;9383;50.928;12.116;2023-03-14T01:18:33;96744.38;;;9.95;100.00
18509;BME280;9383;50.928;12.116;2023-03-14T01:21:04;96743.34;;;9.98;100.00
18509;BME280;9383;50.928;12.116;2023-03-14T01:23:31;96734.66;;;9.96;100.00
18509;BME280;9383;50.928;12.116;2023-03-14T01:25:59;96738.25;;;9.95;100.00
18509;BME280;9383;50.928;12.116;2023-03-14T01:28:25;96743.56;;;9.95;100.00
18509;BME280;9383;50.928;12.116;2023-03-14T01:30:52;96743.34;;;9.98;100.00
18509;BME280;9383;50.928;12.116;2023-03-14T01:33:18;96751.94;;;10.02;100.00
18509;BME280;9383;50.928;12.116;2023-03-14T01:35:45;96755.41;;;10.02;100.00
18509;BME280;9383;50.928;12.116;2023-03-14T01:38:12;96764.94;;;10.05;100.00
18509;BME280;9383;50.928;12.116;2023-03-14T01:40:43;96764.94;;;10.05;100.00
18509;BME280;9383;50.928;12.116;2023-03-14T01:43:18;96770.97;;;10.07;100.00
18509;BME280;9383;50.928;12.116;2023-03-14T01:51:22;96733.19;;;10.05;100.00
18509;BME280;9383;50.928;12.116;2023-03-14T01:53:51;96730.75;;;10.02;100.00
18509;BME280;9383;50.928;12.116;2023-03-14T01:56:20;96725.56;;;10.00;100.00
18509;BME280;9383;50.928;12.116;2023-03-14T01:58:49;96730.84;;;10.00;100.00
18509;BME280;9383;50.928;12.116;2023-03-14T02:01:21;96721.31;;;9.97;100.00
18509;BME280;9383;50.928;12.116;2023-03-14T02:03:55;96723.00;;;9.98;100.00
18509;BME280;9383;50.928;12.116;2023-03-14T02:06:26;96734.34;;;10.01;100.00
18509;BME280;9383;50.928;12.116;2023-03-14T02:08:55;96725.56;;;10.00;100.00
18509;BME280;9383;50.928;12.116;2023-03-14T02:11:23;96718.34;;;10.02;99.63
18509;BME280;9383;50.928;12.116;2023-03-14T02:13:53;96726.41;;;10.01;99.93
18509;BME280;9383;50.928;12.116;2023-03-14T02:16:20;96711.50;;;9.99;99.62
18509;BME280;9383;50.928;12.116;2023-03-14T02:18:47;96712.63;;;9.95;99.95
18509;BME280;9383;50.928;12.116;2023-03-14T02:21:26;96709.16;;;9.95;99.86
18509;BME280;9383;50.928;12.116;2023-03-14T02:24:09;96701.22;;;9.95;98.89
18509;BME280;9383;50.928;12.116;2023-03-14T02:30:02;96679.19;;;9.94;98.99
18509;BME280;9383;50.928;12.116;2023-03-14T02:32:31;96674.84;;;9.93;98.52
18509;BME280;9383;50.928;12.116;2023-03-14T02:35:00;96682.03;;;9.91;98.53
18509;BME280;9383;50.928;12.116;2023-03-14T02:37:55;96674.31;;;9.88;98.01
18509;BME280;9383;50.928;12.116;2023-03-14T02:40:22;96667.44;;;9.85;98.51
18509;BME280;9383;50.928;12.116;2023-03-14T02:42:49;96664.78;;;9.85;98.40
18509;BME280;9383;50.928;12.116;2023-03-14T02:48:04;96673.78;;;9.83;98.02
18509;BME280;9383;50.928;12.116;2023-03-14T02:50:34;96683.72;;;9.79;97.53
18509;BME280;9383;50.928;12.116;2023-03-14T02:53:00;96670.63;;;9.78;97.52
18509;BME280;9383;50.928;12.116;2023-03-14T02:55:27;96668.69;;;9.80;97.33
18509;BME280;9383;50.928;12.116;2023-03-14T02:57:54;96673.25;;;9.78;97.66
18509;BME280;9383;50.928;12.116;2023-03-14T03:00:20;96668.69;;;9.80;97.97
18509;BME280;9383;50.928;12.116;2023-03-14T03:02:47;96689.88;;;9.80;97.88
18509;BME280;9383;50.928;12.116;2023-03-14T03:05:14;96689.88;;;9.80;98.11
18509;BME280;9383;50.928;12.116;2023-03-14T03:07:40;96694.22;;;9.81;98.00
18509;BME280;9383;50.928;12.116;2023-03-14T03:10:08;96678.34;;;9.81;97.63
18509;BME280;9383;50.928;12.116;2023-03-14T03:12:34;96673.69;;;9.84;97.11
18509;BME280;9383;50.928;12.116;2023-03-14T03:15:01;96675.47;;;9.84;97.44
18509;BME280;9383;50.928;12.116;2023-03-14T03:17:28;96676.31;;;9.84;96.71
18509;BME280;9383;50.928;12.116;2023-03-14T03:19:55;96663.94;;;9.85;96.21
18509;BME280;9383;50.928;12.116;2023-03-14T03:22:21;96662.16;;;9.85;96.25
18509;BME280;9383;50.928;12.116;2023-03-14T03:24:49;96651.34;;;9.89;95.30
18509;BME280;9383;50.928;12.116;2023-03-14T03:27:16;96642.44;;;9.90;95.29
18509;BME280;9383;50.928;12.116;2023-03-14T03:29:43;96633.69;;;9.89;95.48
18509;BME280;9383;50.928;12.116;2023-03-14T03:32:09;96634.63;;;9.88;95.09
18509;BME280;9383;50.928;12.116;2023-03-14T03:34:36;96620.66;;;9.86;94.86
18509;BME280;9383;50.928;12.116;2023-03-14T03:37:02;96619.91;;;9.84;95.09
18509;BME280;9383;50.928;12.116;2023-03-14T03:39:29;96620.88;;;9.83;94.29
18509;BME280;9383;50.928;12.116;2023-03-14T03:41:55;96610.41;;;9.81;94.37
18509;BME280;9383;50.928;12.116;2023-03-14T03:44:21;96611.47;;;9.79;94.50
18509;BME280;9383;50.928;12.116;2023-03-14T03:46:49;96608.06;;;9.77;94.34
18509;BME280;9383;50.928;12.116;2023-03-14T03:49:15;96607.34;;;9.75;94.66
18509;BME280;9383;50.928;12.116;2023-03-14T03:51:41;96614.50;;;9.73;94.51
18509;BME280;9383;50.928;12.116;2023-03-14T03:54:08;96619.94;;;9.71;94.17
18509;BME280;9383;50.928;12.116;2023-03-14T03:56:53;96623.41;;;9.71;94.14
18509;BME280;9383;50.928;12.116;2023-03-14T03:59:19;96621.72;;;9.70;93.99
18509;BME280;9383;50.928;12.116;2023-03-14T04:01:46;96627.94;;;9.69;94.09
18509;BME280;9383;50.928;12.116;2023-03-14T04:04:13;96632.28;;;9.70;93.82
18509;BME280;9383;50.928;12.116;2023-03-14T04:06:40;96619.06;;;9.70;94.19
18509;BME280;9383;50.928;12.116;2023-03-14T04:09:09;96620.03;;;9.69;94.24
18509;BME280;9383;50.928;12.116;2023-03-14T04:11:35;96615.69;;;9.68;93.89
18509;BME280;9383;50.928;12.116;2023-03-14T04:14:03;96620.03;;;9.69;92.52
18509;BME280;9383;50.928;12.116;2023-03-14T04:16:30;96627.94;;;9.69;93.19
18509;BME280;9383;50.928;12.116;2023-03-14T04:19:00;96613.03;;;9.68;93.18
18509;BME280;9383;50.928;12.116;2023-03-14T04:21:26;96608.69;;;9.67;93.38
18509;BME280;9383;50.928;12.116;2023-03-14T04:23:53;96604.47;;;9.65;93.47
18509;BME280;9383;50.928;12.116;2023-03-14T04:26:20;96609.88;;;9.63;92.98
18509;BME280;9383;50.928;12.116;2023-03-14T04:28:46;96603.84;;;9.61;92.86
18509;BME280;9383;50.928;12.116;2023-03-14T04:31:19;96618.88;;;9.61;93.14
18509;BME280;9383;50.928;12.116;2023-03-14T04:33:46;96605.72;;;9.59;92.90
18509;BME280;9383;50.928;12.116;2023-03-14T04:36:13;96590.72;;;9.60;93.60
18509;BME280;9383;50.928;12.116;2023-03-14T04:38:40;96587.34;;;9.57;93.27
18509;BME280;9383;50.928;12.116;2023-03-14T04:41:07;96593.59;;;9.56;93.02
18509;BME280;9383;50.928;12.116;2023-03-14T04:43:33;96591.03;;;9.55;93.12
18509;BME280;9383;50.928;12.116;2023-03-14T04:46:00;96578.78;;;9.54;92.57
18509;BME280;9383;50.928;12.116;2023-03-14T04:48:27;96578.88;;;9.52;92.79
18509;BME280;9383;50.928;12.116;2023-03-14T04:50:54;96563.94;;;9.51;92.06
18509;BME280;9383;50.928;12.116;2023-03-14T04:53:20;96580.56;;;9.53;92.37
18509;BME280;9383;50.928;12.116;2023-03-14T04:55:52;96578.03;;;9.52;92.69
18509;BME280;9383;50.928;12.116;2023-03-14T04:58:19;96590.53;;;9.50;92.89
18509;BME280;9383;50.928;12.116;2023-03-14T05:00:46;96580.03;;;9.48;93.01
18509;BME280;9383;50.928;12.116;2023-03-14T05:03:15;96588.06;;;9.47;92.82
18509;BME280;9383;50.928;12.116;2023-03-14T05:05:42;96583.94;;;9.42;93.15
18509;BME280;9383;50.928;12.116;2023-03-14T05:08:08;96575.28;;;9.40;93.31
18509;BME280;9383;50.928;12.116;2023-03-14T05:10:35;96577.06;;;9.40;93.40
18509;BME280;9383;50.928;12.116;2023-03-14T05:13:03;96573.69;;;9.38;94.08
18509;BME280;9383;50.928;12.116;2023-03-14T05:15:29;96572.00;;;9.37;93.96
18509;BME280;9383;50.928;12.116;2023-03-14T05:17:56;96568.50;;;9.36;94.18
18509;BME280;9383;50.928;12.116;2023-03-14T05:20:22;96574.72;;;9.35;94.34
18509;BME280;9383;50.928;12.116;2023-03-14T05:22:48;96572.09;;;9.35;94.44
18509;BME280;9383;50.928;12.116;2023-03-14T05:25:15;96576.44;;;9.36;94.45
18509;BME280;9383;50.928;12.116;2023-03-14T05:27:42;96574.63;;;9.37;94.43
18509;BME280;9383;50.928;12.116;2023-03-14T05:30:09;96563.22;;;9.36;94.19
18509;BME280;9383;50.928;12.116;2023-03-14T05:32:36;96554.34;;;9.37;93.68
18509;BME280;9383;50.928;12.116;2023-03-14T05:35:02;96554.22;;;9.39;93.91
18509;BME280;9383;50.928;12.116;2023-03-14T05:37:29;96548.84;;;9.40;94.23
18509;BME280;9383;50.928;12.116;2023-03-14T05:39:55;96558.56;;;9.40;93.92
18509;BME280;9383;50.928;12.116;2023-03-14T05:42:22;96559.50;;;9.39;93.87
18509;BME280;9383;50.928;12.116;2023-03-14T05:44:48;96564.59;;;9.42;92.97
18509;BME280;9383;50.928;12.116;2023-03-14T05:47:15;96565.22;;;9.46;92.60
18509;BME280;9383;50.928;12.116;2023-03-14T05:49:41;96570.50;;;9.46;92.91
18509;BME280;9383;50.928;12.116;2023-03-14T05:52:08;96570.50;;;9.46;92.74
18509;BME280;9383;50.928;12.116;2023-03-14T05:54:34;96564.25;;;9.47;92.74
18509;BME280;9383;50.928;12.116;2023-03-14T05:57:01;96572.19;;;9.47;92.97
18509;BME280;9383;50.928;12.116;2023-03-14T05:59:27;96573.06;;;9.47;93.17
18509;BME280;9383;50.928;12.116;2023-03-14T06:01:54;96575.69;;;9.47;93.46
18509;BME280;9383;50.928;12.116;2023-03-14T06:04:20;96569.38;;;9.50;92.58
18509;BME280;9383;50.928;12.116;2023-03-14T06:06:47;96571.06;;;9.51;92.68
18509;BME280;9383;50.928;12.116;2023-03-14T06:09:13;96576.13;;;9.54;93.10
18509;BME280;9383;50.928;12.116;2023-03-14T06:11:40;96576.13;;;9.54;92.63
18509;BME280;9383;50.928;12.116;2023-03-14T06:14:07;96579.50;;;9.56;92.58
18509;BME280;9383;50.928;12.116;2023-03-14T06:16:33;96582.06;;;9.57;92.26
18509;BME280;9383;50.928;12.116;2023-03-14T06:19:00;96573.16;;;9.59;91.88
18509;BME280;9383;50.928;12.116;2023-03-14T06:21:26;96569.56;;;9.60;91.92
18509;BME280;9383;50.928;12.116;2023-03-14T06:23:53;96573.91;;;9.61;92.41
18509;BME280;9383;50.928;12.116;2023-03-14T06:26:19;96577.41;;;9.61;92.49
18509;BME280;9383;50.928;12.116;2023-03-14T06:28:46;96571.16;;;9.62;92.19
18509;BME280;9383;50.928;12.116;2023-03-14T06:31:12;96574.75;;;9.61;90.57
18509;BME280;9383;50.928;12.116;2023-03-14T06:33:39;96568.50;;;9.62;90.81
18509;BME280;9383;50.928;12.116;2023-03-14T06:36:06;96565.88;;;9.62;91.04
18509;BME280;9383;50.928;12.116;2023-03-14T06:38:33;96564.06;;;9.63;90.48
18509;BME280;9383;50.928;12.116;2023-03-14T06:41:06;96571.91;;;9.64;89.95
18509;BME280;9383;50.928;12.116;2023-03-14T06:43:33;96577.91;;;9.66;90.21
18509;BME280;9383;50.928;12.116;2023-03-14T06:46:00;96569.97;;;9.66;89.82
18509;BME280;9383;50.928;12.116;2023-03-14T06:48:27;96566.47;;;9.66;89.59
18509;BME280;9383;50.928;12.116;2023-03-14T06:50:53;96574.31;;;9.67;88.98
18509;BME280;9383;50.928;12.116;2023-03-14T06:53:20;96567.25;;;9.68;89.34
18509;BME280;9383;50.928;12.116;2023-03-14T06:55:46;96566.28;;;9.69;88.88
18509;BME280;9383;50.928;12.116;2023-03-14T06:58:13;96566.28;;;9.69;89.19
18509;BME280;9383;50.928;12.116;2023-03-14T07:00:40;96569.53;;;9.73;89.17
18509;BME280;9383;50.928;12.116;2023-03-14T07:03:06;96570.31;;;9.75;88.82
18509;BME280;9383;50.928;12.116;2023-03-14T07:05:32;96564.88;;;9.76;88.86
18509;BME280;9383;50.928;12.116;2023-03-14T07:07:59;96555.81;;;9.80;88.42
18509;BME280;9383;50.928;12.116;2023-03-14T07:10:26;96560.88;;;9.83;88.83
18509;BME280;9383;50.928;12.116;2023-03-14T07:12:52;96562.56;;;9.84;89.18
18509;BME280;9383;50.928;12.116;2023-03-14T07:15:20;96564.03;;;9.89;88.49
18509;BME280;9383;50.928;12.116;2023-03-14T07:17:47;96575.25;;;9.92;87.82
18509;BME280;9383;50.928;12.116;2023-03-14T07:20:17;96573.88;;;9.99;86.63
18509;BME280;9383;50.928;12.116;2023-03-14T07:22:43;96568.44;;;10.01;87.39
18509;BME280;9383;50.928;12.116;2023-03-14T07:25:10;96568.22;;;10.04;87.34
18509;BME280;9383;50.928;12.116;2023-03-14T07:27:38;96578.63;;;10.07;86.81
18509;BME280;9383;50.928;12.116;2023-03-14T07:30:05;96577.53;;;10.10;86.17
18509;BME280;9383;50.928;12.116;2023-03-14T07:32:32;96579.97;;;10.13;86.17
18509;BME280;9383;50.928;12.116;2023-03-14T07:34:58;96574.44;;;10.16;86.12
18509;BME280;9383;50.928;12.116;2023-03-14T07:37:25;96587.47;;;10.19;85.62
18509;BME280;9383;50.928;12.116;2023-03-14T07:39:52;96587.25;;;10.22;85.15
18509;BME280;9383;50.928;12.116;2023-03-14T07:42:18;96591.38;;;10.26;83.63
18509;BME280;9383;50.928;12.116;2023-03-14T07:44:46;96588.50;;;10.30;83.31
18509;BME280;9383;50.928;12.116;2023-03-14T07:47:12;96587.22;;;10.35;81.22
18509;BME280;9383;50.928;12.116;2023-03-14T07:49:39;96589.75;;;10.37;81.99
18509;BME280;9383;50.928;12.116;2023-03-14T07:52:05;96582.56;;;10.39;82.28
18509;BME280;9383;50.928;12.116;2023-03-14T07:54:32;96578.94;;;10.40;83.72
18509;BME280;9383;50.928;12.116;2023-03-14T07:56:58;96577.13;;;10.40;83.04
18509;BME280;9383;50.928;12.116;2023-03-14T07:59:27;96576.94;;;10.44;84.27
18509;BME280;9383;50.928;12.116;2023-03-14T08:01:54;96578.50;;;10.46;82.64
18509;BME280;9383;50.928;12.116;2023-03-14T08:04:20;96571.19;;;10.50;83.21
18509;BME280;9383;50.928;12.116;2023-03-14T08:06:47;96572.66;;;10.54;82.83
18509;BME280;9383;50.928;12.116;2023-03-14T08:09:14;96575.09;;;10.57;82.55
18509;BME280;9383;50.928;12.116;2023-03-14T08:11:40;96581.22;;;10.58;82.36
18509;BME280;9383;50.928;12.116;2023-03-14T08:14:07;96583.78;;;10.59;82.72
18509;BME280;9383;50.928;12.116;2023-03-14T08:16:33;96577.53;;;10.60;83.02
18509;BME280;9383;50.928;12.116;2023-03-14T08:19:00;96580.28;;;10.59;83.14
18509;BME280;9383;50.928;12.116;2023-03-14T08:21:26;96571.69;;;10.55;82.79
18509;BME280;9383;50.928;12.116;2023-03-14T08:23:53;96575.94;;;10.58;82.61
18509;BME280;9383;50.928;12.116;2023-03-14T08:26:30;96567.03;;;10.59;82.40
18509;BME280;9383;50.928;12.116;2023-03-14T08:28:56;96574.88;;;10.60;81.86
18509;BME280;9383;50.928;12.116;2023-03-14T08:31:26;96565.84;;;10.63;82.52
18509;BME280;9383;50.928;12.116;2023-03-14T08:33:53;96573.81;;;10.63;81.93
18509;BME280;9383;50.928;12.116;2023-03-14T08:36:21;96577.41;;;10.62;80.58
18509;BME280;9383;50.928;12.116;2023-03-14T08:38:47;96574.88;;;10.60;80.84
18509;BME280;9383;50.928;12.116;2023-03-14T08:41:13;96566.81;;;10.62;81.39
18509;BME280;9383;50.928;12.116;2023-03-14T08:43:40;96574.78;;;10.62;80.25
18509;BME280;9383;50.928;12.116;2023-03-14T08:46:07;96570.19;;;10.64;80.63
18509;BME280;9383;50.928;12.116;2023-03-14T08:48:33;96584.16;;;10.66;80.81
18509;BME280;9383;50.928;12.116;2023-03-14T08:51:11;96577.91;;;10.67;80.72
18509;BME280;9383;50.928;12.116;2023-03-14T08:53:39;96573.56;;;10.66;79.60
18509;BME280;9383;50.928;12.116;2023-03-14T08:56:06;96579.94;;;10.63;80.38
18509;BME280;9383;50.928;12.116;2023-03-14T08:58:33;96585.00;;;10.66;80.00
18509;BME280;9383;50.928;12.116;2023-03-14T09:01:00;96585.75;;;10.68;79.27
18509;BME280;9383;50.928;12.116;2023-03-14T09:03:26;96582.00;;;10.71;79.60
18509;BME280;9383;50.928;12.116;2023-03-14T09:05:53;96589.88;;;10.73;79.84
18509;BME280;9383;50.928;12.116;2023-03-14T09:08:20;96576.47;;;10.74;79.68
18509;BME280;9383;50.928;12.116;2023-03-14T09:10:46;96577.97;;;10.78;80.45
18509;BME280;9383;50.928;12.116;2023-03-14T09:13:12;96579.66;;;10.79;79.53
18509;BME280;9383;50.928;12.116;2023-03-14T09:15:39;96584.00;;;10.80;79.28
18509;BME280;9383;50.928;12.116;2023-03-14T09:18:08;96586.63;;;10.80;78.74
18509;BME280;9383;50.928;12.116;2023-03-14T09:20:34;96582.78;;;10.84;79.24
18509;BME280;9383;50.928;12.116;2023-03-14T09:23:01;96586.16;;;10.87;78.65
18509;BME280;9383;50.928;12.116;2023-03-14T09:25:28;96573.44;;;10.92;78.56
18509;BME280;9383;50.928;12.116;2023-03-14T09:27:54;96578.41;;;10.96;78.94
18509;BME280;9383;50.928;12.116;2023-03-14T09:30:21;96574.56;;;11.01;77.86
18509;BME280;9383;50.928;12.116;2023-03-14T09:32:47;96574.22;;;11.05;77.95
18509;BME280;9383;50.928;12.116;2023-03-14T09:35:14;96587.94;;;11.10;77.25
18509;BME280;9383;50.928;12.116;2023-03-14T09:37:40;96578.81;;;11.15;77.08
18509;BME280;9383;50.928;12.116;2023-03-14T09:40:11;96573.28;;;11.18;78.25
18509;BME280;9383;50.928;12.116;2023-03-14T09:42:38;96577.53;;;11.20;78.08
18509;BME280;9383;50.928;12.116;2023-03-14T09:45:12;96574.28;;;11.28;77.82
18509;BME280;9383;50.928;12.116;2023-03-14T09:47:41;96569.09;;;11.38;77.57
18509;BME280;9383;50.928;12.116;2023-03-14T09:50:15;96567.31;;;11.50;75.21
18509;BME280;9383;50.928;12.116;2023-03-14T09:52:51;96577.47;;;11.56;76.20
18509;BME280;9383;50.928;12.116;2023-03-14T09:55:23;96563.25;;;11.68;76.38
18509;BME280;9383;50.928;12.116;2023-03-14T09:57:54;96555.16;;;11.81;75.78
18509;BME280;9383;50.928;12.116;2023-03-14T10:00:25;96564.56;;;11.97;75.86
18509;BME280;9383;50.928;12.116;2023-03-14T10:03:09;96559.66;;;12.15;74.69
18509;BME280;9383;50.928;12.116;2023-03-14T10:05:43;96558.88;;;12.36;74.36
18509;BME280;9383;50.928;12.116;2023-03-14T10:08:13;96554.84;;;12.53;73.82
18509;BME280;9383;50.928;12.116;2023-03-14T10:10:41;96550.81;;;12.70;74.13
18509;BME280;9383;50.928;12.116;2023-03-14T10:15:53;96563.69;;;12.86;70.51
18509;BME280;9383;50.928;12.116;2023-03-14T10:18:20;96554.38;;;12.92;68.48
18509;BME280;9383;50.928;12.116;2023-03-14T10:20:49;96568.81;;;12.99;69.46
18509;BME280;9383;50.928;12.116;2023-03-14T10:23:28;96584.66;;;13.01;68.45
18509;BME280;9383;50.928;12.116;2023-03-14T10:29:10;96566.97;;;12.78;67.40
18509;BME280;9383;50.928;12.116;2023-03-14T10:31:54;96566.72;;;12.82;68.92
18509;BME280;9383;50.928;12.116;2023-03-14T10:34:29;96578.78;;;12.86;69.80
18509;BME280;9383;50.928;12.116;2023-03-14T10:36:59;96575.66;;;12.80;69.16
18509;BME280;9383;50.928;12.116;2023-03-14T10:39:41;96576.88;;;12.76;69.31
18509;BME280;9383;50.928;12.116;2023-03-14T10:42:20;96587.50;;;12.76;69.83
18509;BME280;9383;50.928;12.116;2023-03-14T10:44:53;96585.09;;;12.73;70.93
18509;BME280;9383;50.928;12.116;2023-03-14T10:47:24;96601.31;;;12.70;71.35
18509;BME280;9383;50.928;12.116;2023-03-14T10:49:52;96600.78;;;12.76;71.30
18509;BME280;9383;50.928;12.116;2023-03-14T10:52:27;96596.72;;;12.72;71.11
18509;BME280;9383;50.928;12.116;2023-03-14T10:55:01;96604.09;;;12.69;71.32
18509;BME280;9383;50.928;12.116;2023-03-14T10:57:29;96606.16;;;12.65;71.84
18509;BME280;9383;50.928;12.116;2023-03-14T10:59:56;96602.22;;;12.36;74.30
18509;BME280;9383;50.928;12.116;2023-03-14T11:08:33;96607.81;;;12.10;74.09
18509;BME280;9383;50.928;12.116;2023-03-14T11:11:25;96620.00;;;12.02;75.03
18509;BME280;9383;50.928;12.116;2023-03-14T11:14:14;96615.72;;;11.88;73.89
18509;BME280;9383;50.928;12.116;2023-03-14T11:19:53;96619.81;;;11.80;74.59
18509;BME280;9383;50.928;12.116;2023-03-14T11:22:45;96617.91;;;11.82;76.54
18509;BME280;9383;50.928;12.116;2023-03-14T11:25:32;96610.53;;;11.86;77.46
18509;BME280;9383;50.928;12.116;2023-03-14T11:31:16;96609.81;;;11.95;77.36
18509;BME280;9383;50.928;12.116;2023-03-14T11:33:56;96612.59;;;11.94;76.98
18509;BME280;9383;50.928;12.116;2023-03-14T11:39:15;96615.38;;;11.81;76.71
18509;BME280;9383;50.928;12.116;2023-03-14T11:41:52;96615.25;;;11.82;76.59
18509;BME280;9383;50.928;12.116;2023-03-14T11:44:25;96592.91;;;11.85;76.90
18509;BME280;9383;50.928;12.116;2023-03-14T11:47:19;96597.03;;;11.78;76.08
18509;BME280;9383;50.928;12.116;2023-03-14T11:49:57;96592.91;;;11.85;76.41
18509;BME280;9383;50.928;12.116;2023-03-14T11:52:45;96595.34;;;11.88;76.43
18509;BME280;9383;50.928;12.116;2023-03-14T11:55:27;96598.38;;;11.95;75.75
18509;BME280;9383;50.928;12.116;2023-03-14T11:58:24;96589.19;;;11.99;75.42
18509;BME280;9383;50.928;12.116;2023-03-14T12:00:54;96589.34;;;12.09;75.27
18509;BME280;9383;50.928;12.116;2023-03-14T12:09:05;96580.09;;;12.47;76.02
18509;BME280;9383;50.928;12.116;2023-03-14T12:11:45;96597.22;;;12.66;72.36
18509;BME280;9383;50.928;12.116;2023-03-14T12:14:32;96576.66;;;12.79;71.98
18509;BME280;9383;50.928;12.116;2023-03-14T12:19:43;96569.94;;;12.97;70.73
18509;BME280;9383;50.928;12.116;2023-03-14T12:22:27;96573.03;;;13.02;71.51
18509;BME280;9383;50.928;12.116;2023-03-14T12:25:05;96571.47;;;12.99;69.54
18509;BME280;9383;50.928;12.116;2023-03-14T12:30:30;96575.97;;;12.66;69.74
18509;BME280;9383;50.928;12.116;2023-03-14T12:35:37;96569.41;;;12.70;71.33
18509;BME280;9383;50.928;12.116;2023-03-14T12:40:41;96579.03;;;12.83;70.50
18509;BME280;9383;50.928;12.116;2023-03-14T12:43:40;96557.44;;;12.76;70.31
18509;BME280;9383;50.928;12.116;2023-03-14T12:46:30;96562.38;;;12.80;72.20
18509;BME280;9383;50.928;12.116;2023-03-14T12:49:04;96568.41;;;12.83;71.91
18509;BME280;9383;50.928;12.116;2023-03-14T12:51:38;96557.13;;;12.90;71.56
18509;BME280;9383;50.928;12.116;2023-03-14T12:54:34;96554.75;;;12.87;71.03
18509;BME280;9383;50.928;12.116;2023-03-14T12:59:57;96553.59;;;12.69;69.78
18509;BME280;9383;50.928;12.116;2023-03-14T13:13:01;96545.41;;;12.60;70.52
18509;BME280;9383;50.928;12.116;2023-03-14T13:15:39;96554.47;;;12.58;70.56
18509;BME280;9383;50.928;12.116;2023-03-14T13:18:16;96548.44;;;12.56;70.56
18509;BME280;9383;50.928;12.116;2023-03-14T13:20:53;96548.19;;;12.59;70.97
18509;BME280;9383;50.928;12.116;2023-03-14T13:23:26;96561.59;;;12.57;70.86
18509;BME280;9383;50.928;12.116;2023-03-14T13:25:56;96560.16;;;12.53;70.69
18509;BME280;9383;50.928;12.116;2023-03-14T13:28:25;96546.38;;;12.59;72.14
18509;BME280;9383;50.928;12.116;2023-03-14T13:31:24;96545.59;;;12.69;72.47
18509;BME280;9383;50.928;12.116;2023-03-14T13:34:01;96536.28;;;12.74;72.53
18509;BME280;9383;50.928;12.116;2023-03-14T13:36:28;96538.44;;;12.80;72.41
18509;BME280;9383;50.928;12.116;2023-03-14T13:38:59;96535.97;;;12.89;71.72
18509;BME280;9383;50.928;12.116;2023-03-14T13:41:26;96526.09;;;12.91;70.59
18509;BME280;9383;50.928;12.116;2023-03-14T13:44:01;96528.47;;;12.94;69.81
18509;BME280;9383;50.928;12.116;2023-03-14T13:46:28;96534.50;;;12.96;69.43
18509;BME280;9383;50.928;12.116;2023-03-14T13:49:01;96467.81;;;12.66;67.84
18509;BME280;9383;50.928;12.116;2023-03-14T13:51:28;96518.63;;;13.06;69.32
18509;BME280;9383;50.928;12.116;2023-03-14T13:53:58;96519.59;;;13.05;67.55
18509;BME280;9383;50.928;12.116;2023-03-14T13:56:31;96529.25;;;13.06;68.84
18509;BME280;9383;50.928;12.116;2023-03-14T13:58:58;96528.44;;;13.05;68.07
18509;BME280;9383;50.928;12.116;2023-03-14T14:01:28;96527.13;;;13.00;67.43
18509;BME280;9383;50.928;12.116;2023-03-14T14:03:59;96533.09;;;12.92;68.12
18509;BME280;9383;50.928;12.116;2023-03-14T14:06:37;96536.94;;;12.88;68.63
18509;BME280;9383;50.928;12.116;2023-03-14T14:09:15;96530.47;;;12.80;69.48
18509;BME280;9383;50.928;12.116;2023-03-14T14:14:42;96527.09;;;12.78;69.15
18509;BME280;9383;50.928;12.116;2023-03-14T14:17:14;96523.47;;;12.79;69.19
18509;BME280;9383;50.928;12.116;2023-03-14T14:19:43;96528.78;;;12.79;69.20
18509;BME280;9383;50.928;12.116;2023-03-14T14:22:11;96528.31;;;12.74;70.18
18509;BME280;9383;50.928;12.116;2023-03-14T14:24:38;96534.22;;;12.78;69.78